<?xml version="1.0" encoding="UTF-8" standalone="no" ?>
<gpx xmlns="http://www.topografix.com/GPX/1/1" xmlns:xsi="http://www.w3.org/2001/XMLSchema-instance" xsi:schemaLocation="http://www.topografix.com/GPX/1/1 http://www.topografix.com/GPX/1/1/gpx.xsd" version="1.1" creator="VisuGPX - https://www.visugpx.com">
  <metadata>
    <name>Portbail-&amp;gt; Dunes de Lindbergh&amp;quot;</name>
    <desc><![CDATA[Départ et arrivée au port. Une agréable ballade dans un paysage magnifique.(Boucle_90% chemin_sentier). Départ : 49°19'49.1"N 1°42'21.5"W
Plus itinéraire de secours si grande marrée ]]></desc>
  </metadata>
  <trk>
    <name><![CDATA[Itinéraire principal]]></name>
    <trkseg>
      <trkpt lat="49.33028" lon="-1.70584">
        <ele>57.381958</ele>
        <time>2020-08-06T06:19:42.790Z</time>
      </trkpt>
      <trkpt lat="49.33029" lon="-1.70583">
        <ele>56.631649</ele>
        <time>2020-08-06T06:20:36.564Z</time>
      </trkpt>
      <trkpt lat="49.3304" lon="-1.70571">
        <ele>56.318726</ele>
        <time>2020-08-06T06:20:46.641Z</time>
      </trkpt>
      <trkpt lat="49.33045" lon="-1.70558">
        <ele>56.134254</ele>
        <time>2020-08-06T06:20:56.909Z</time>
      </trkpt>
      <trkpt lat="49.33062" lon="-1.70544">
        <ele>57.984123</ele>
        <time>2020-08-06T06:21:07.350Z</time>
      </trkpt>
      <trkpt lat="49.33079" lon="-1.70524">
        <ele>58.633419</ele>
        <time>2020-08-06T06:21:17.597Z</time>
      </trkpt>
      <trkpt lat="49.33082" lon="-1.70515">
        <ele>57.867573</ele>
        <time>2020-08-06T06:21:44.301Z</time>
      </trkpt>
      <trkpt lat="49.33109" lon="-1.70467">
        <ele>54.281937</ele>
        <time>2020-08-06T06:22:01.008Z</time>
      </trkpt>
      <trkpt lat="49.33125" lon="-1.7045">
        <ele>55.578671</ele>
        <time>2020-08-06T06:22:18.518Z</time>
      </trkpt>
      <trkpt lat="49.33138" lon="-1.70411">
        <ele>55.196243</ele>
        <time>2020-08-06T06:22:40.811Z</time>
      </trkpt>
      <trkpt lat="49.33146" lon="-1.70374">
        <ele>56.128128</ele>
        <time>2020-08-06T06:22:56.992Z</time>
      </trkpt>
      <trkpt lat="49.33169" lon="-1.70352">
        <ele>55.767651</ele>
        <time>2020-08-06T06:23:13.231Z</time>
      </trkpt>
      <trkpt lat="49.33186" lon="-1.70334">
        <ele>55.48502</ele>
        <time>2020-08-06T06:23:32.536Z</time>
      </trkpt>
      <trkpt lat="49.332" lon="-1.70321">
        <ele>56.599998</ele>
        <time>2020-08-06T06:23:42.576Z</time>
      </trkpt>
      <trkpt lat="49.33211" lon="-1.70307">
        <ele>56.599998</ele>
        <time>2020-08-06T06:23:52.594Z</time>
      </trkpt>
      <trkpt lat="49.33216" lon="-1.70299">
        <ele>56.599998</ele>
        <time>2020-08-06T06:24:03.271Z</time>
      </trkpt>
      <trkpt lat="49.3322" lon="-1.70302">
        <ele>56.599998</ele>
        <time>2020-08-06T06:24:13.586Z</time>
      </trkpt>
      <trkpt lat="49.33233" lon="-1.70293">
        <ele>56.599998</ele>
        <time>2020-08-06T06:24:41.640Z</time>
      </trkpt>
      <trkpt lat="49.33273" lon="-1.7025">
        <ele>56.599998</ele>
        <time>2020-08-06T06:24:58.045Z</time>
      </trkpt>
      <trkpt lat="49.3327" lon="-1.70255">
        <ele>56.807556</ele>
        <time>2020-08-06T06:26:25.052Z</time>
      </trkpt>
      <trkpt lat="49.33276" lon="-1.7025">
        <ele>57.279434</ele>
        <time>2020-08-06T06:26:46.096Z</time>
      </trkpt>
      <trkpt lat="49.33303" lon="-1.70217">
        <ele>58.278481</ele>
        <time>2020-08-06T06:27:06.778Z</time>
      </trkpt>
      <trkpt lat="49.33327" lon="-1.70191">
        <ele>57.806786</ele>
        <time>2020-08-06T06:27:27.978Z</time>
      </trkpt>
      <trkpt lat="49.33349" lon="-1.7015">
        <ele>56.785633</ele>
        <time>2020-08-06T06:27:40.636Z</time>
      </trkpt>
      <trkpt lat="49.33361" lon="-1.70137">
        <ele>56.00856</ele>
        <time>2020-08-06T06:27:56.651Z</time>
      </trkpt>
      <trkpt lat="49.33383" lon="-1.70112">
        <ele>57.922028</ele>
        <time>2020-08-06T06:28:12.817Z</time>
      </trkpt>
      <trkpt lat="49.33396" lon="-1.70095">
        <ele>57.399998</ele>
        <time>2020-08-06T06:28:31.385Z</time>
      </trkpt>
      <trkpt lat="49.33405" lon="-1.70079">
        <ele>56.599998</ele>
        <time>2020-08-06T06:28:55.032Z</time>
      </trkpt>
      <trkpt lat="49.33429" lon="-1.70031">
        <ele>59.199997</ele>
        <time>2020-08-06T06:29:11.614Z</time>
      </trkpt>
      <trkpt lat="49.33451" lon="-1.69998">
        <ele>59.199997</ele>
        <time>2020-08-06T06:29:27.896Z</time>
      </trkpt>
      <trkpt lat="49.33461" lon="-1.69981">
        <ele>57.399998</ele>
        <time>2020-08-06T06:29:46.570Z</time>
      </trkpt>
      <trkpt lat="49.33464" lon="-1.69967">
        <ele>7</ele>
      </trkpt>
      <trkpt lat="49.33461" lon="-1.69951">
        <ele>57.699997</ele>
        <time>2020-08-06T06:30:03.564Z</time>
      </trkpt>
      <trkpt lat="49.33432" lon="-1.69938">
        <ele>56.799999</ele>
        <time>2020-08-06T06:30:17.036Z</time>
      </trkpt>
      <trkpt lat="49.33418" lon="-1.69926">
        <ele>56.599998</ele>
        <time>2020-08-06T06:30:30.286Z</time>
      </trkpt>
      <trkpt lat="49.33405" lon="-1.69902">
        <ele>58.099998</ele>
        <time>2020-08-06T06:30:46.902Z</time>
      </trkpt>
      <trkpt lat="49.33382" lon="-1.69871">
        <ele>56.599998</ele>
        <time>2020-08-06T06:31:01.629Z</time>
      </trkpt>
      <trkpt lat="49.33369" lon="-1.69853">
        <ele>56.899998</ele>
        <time>2020-08-06T06:31:23.049Z</time>
      </trkpt>
      <trkpt lat="49.33346" lon="-1.69821">
        <ele>57.099998</ele>
        <time>2020-08-06T06:31:44.021Z</time>
      </trkpt>
      <trkpt lat="49.33321" lon="-1.69798">
        <ele>57</ele>
        <time>2020-08-06T06:32:05.203Z</time>
      </trkpt>
      <trkpt lat="49.33293" lon="-1.69779">
        <ele>5.5</ele>
      </trkpt>
      <trkpt lat="49.33269" lon="-1.6976">
        <ele>5.3</ele>
      </trkpt>
      <trkpt lat="49.33246" lon="-1.69738">
        <ele>5.1</ele>
      </trkpt>
      <trkpt lat="49.33221" lon="-1.69711">
        <ele>50.960155</ele>
        <time>2020-08-06T06:33:19.413Z</time>
      </trkpt>
      <trkpt lat="49.33194" lon="-1.69687">
        <ele>51.26886</ele>
        <time>2020-08-06T06:33:35.862Z</time>
      </trkpt>
      <trkpt lat="49.33184" lon="-1.69671">
        <ele>51.438393</ele>
        <time>2020-08-06T06:33:48.424Z</time>
      </trkpt>
      <trkpt lat="49.33173" lon="-1.69655">
        <ele>52.736115</ele>
        <time>2020-08-06T06:34:04.959Z</time>
      </trkpt>
      <trkpt lat="49.33152" lon="-1.69627">
        <ele>51.288521</ele>
        <time>2020-08-06T06:34:18.943Z</time>
      </trkpt>
      <trkpt lat="49.33139" lon="-1.6961">
        <ele>50.262028</ele>
        <time>2020-08-06T06:34:31.188Z</time>
      </trkpt>
      <trkpt lat="49.33119" lon="-1.69582">
        <ele>52.037621</ele>
        <time>2020-08-06T06:34:47.871Z</time>
      </trkpt>
      <trkpt lat="49.33108" lon="-1.6957">
        <ele>51.262478</ele>
        <time>2020-08-06T06:35:02.910Z</time>
      </trkpt>
      <trkpt lat="49.3309" lon="-1.69539">
        <ele>52.481907</ele>
        <time>2020-08-06T06:35:22.529Z</time>
      </trkpt>
      <trkpt lat="49.33081" lon="-1.69497">
        <ele>52.700233</ele>
        <time>2020-08-06T06:35:40.176Z</time>
      </trkpt>
      <trkpt lat="49.33079" lon="-1.69478">
        <ele>54.398163</ele>
        <time>2020-08-06T06:35:51.011Z</time>
      </trkpt>
      <trkpt lat="49.33078" lon="-1.69457">
        <ele>53.435783</ele>
        <time>2020-08-06T06:36:05.106Z</time>
      </trkpt>
      <trkpt lat="49.33075" lon="-1.69417">
        <ele>54.276642</ele>
        <time>2020-08-06T06:36:19.517Z</time>
      </trkpt>
      <trkpt lat="49.33075" lon="-1.69396">
        <ele>54.177807</ele>
        <time>2020-08-06T06:36:33.349Z</time>
      </trkpt>
      <trkpt lat="49.33072" lon="-1.69371">
        <ele>53.375195</ele>
        <time>2020-08-06T06:36:45.932Z</time>
      </trkpt>
      <trkpt lat="49.33055" lon="-1.69334">
        <ele>50.621014</ele>
        <time>2020-08-06T06:37:04.928Z</time>
      </trkpt>
      <trkpt lat="49.33046" lon="-1.69314">
        <ele>50.775658</ele>
        <time>2020-08-06T06:37:25.915Z</time>
      </trkpt>
      <trkpt lat="49.33017" lon="-1.6927">
        <ele>50.153862</ele>
        <time>2020-08-06T06:37:47.435Z</time>
      </trkpt>
      <trkpt lat="49.33" lon="-1.69238">
        <ele>2.9</ele>
      </trkpt>
      <trkpt lat="49.32994" lon="-1.69197">
        <ele>52.046555</ele>
        <time>2020-08-06T06:38:24.608Z</time>
      </trkpt>
      <trkpt lat="49.32993" lon="-1.69175">
        <ele>52.411816</ele>
        <time>2020-08-06T06:38:42.636Z</time>
      </trkpt>
      <trkpt lat="49.32993" lon="-1.69134">
        <ele>4.1</ele>
      </trkpt>
      <trkpt lat="49.32991" lon="-1.6911">
        <ele>51.173409</ele>
        <time>2020-08-06T06:39:18.574Z</time>
      </trkpt>
      <trkpt lat="49.32989" lon="-1.69085">
        <ele>5</ele>
      </trkpt>
      <trkpt lat="49.32988" lon="-1.69061">
        <ele>4.8</ele>
      </trkpt>
      <trkpt lat="49.32992" lon="-1.69012">
        <ele>53.126869</ele>
        <time>2020-08-06T06:40:00.798Z</time>
      </trkpt>
      <trkpt lat="49.32993" lon="-1.6897">
        <ele>52.70676</ele>
        <time>2020-08-06T06:40:21.675Z</time>
      </trkpt>
      <trkpt lat="49.32999" lon="-1.68946">
        <ele>49.151356</ele>
        <time>2020-08-06T06:40:57.538Z</time>
      </trkpt>
      <trkpt lat="49.33015" lon="-1.68889">
        <ele>50.184998</ele>
        <time>2020-08-06T06:41:18.301Z</time>
      </trkpt>
      <trkpt lat="49.3302" lon="-1.68844">
        <ele>51.065899</ele>
        <time>2020-08-06T06:41:39.637Z</time>
      </trkpt>
      <trkpt lat="49.33032" lon="-1.68803">
        <ele>51.38303</ele>
        <time>2020-08-06T06:42:00.741Z</time>
      </trkpt>
      <trkpt lat="49.3305" lon="-1.68765">
        <ele>50.06929</ele>
        <time>2020-08-06T06:42:17.588Z</time>
      </trkpt>
      <trkpt lat="49.33057" lon="-1.68746">
        <ele>49.655609</ele>
        <time>2020-08-06T06:42:32.315Z</time>
      </trkpt>
      <trkpt lat="49.33058" lon="-1.68695">
        <ele>53.151543</ele>
        <time>2020-08-06T06:42:52.375Z</time>
      </trkpt>
      <trkpt lat="49.33029" lon="-1.68688">
        <ele>52.104153</ele>
        <time>2020-08-06T06:43:08.604Z</time>
      </trkpt>
      <trkpt lat="49.33013" lon="-1.68688">
        <ele>50.684284</ele>
        <time>2020-08-06T06:43:27.300Z</time>
      </trkpt>
      <trkpt lat="49.32983" lon="-1.6868">
        <ele>51.98064</ele>
        <time>2020-08-06T06:43:48.420Z</time>
      </trkpt>
      <trkpt lat="49.32955" lon="-1.68666">
        <ele>51.392044</ele>
        <time>2020-08-06T06:44:09.815Z</time>
      </trkpt>
      <trkpt lat="49.32932" lon="-1.68657">
        <ele>52.385967</ele>
        <time>2020-08-06T06:44:30.947Z</time>
      </trkpt>
      <trkpt lat="49.32904" lon="-1.6864">
        <ele>50.816578</ele>
        <time>2020-08-06T06:44:51.548Z</time>
      </trkpt>
      <trkpt lat="49.32878" lon="-1.68624">
        <ele>49.394989</ele>
        <time>2020-08-06T06:45:07.534Z</time>
      </trkpt>
      <trkpt lat="49.32852" lon="-1.68639">
        <ele>50.67094</ele>
        <time>2020-08-06T06:45:23.967Z</time>
      </trkpt>
      <trkpt lat="49.32844" lon="-1.68653">
        <ele>50.2299</ele>
        <time>2020-08-06T06:45:45.568Z</time>
      </trkpt>
      <trkpt lat="49.32817" lon="-1.68703">
        <ele>47.973591</ele>
        <time>2020-08-06T06:46:06.670Z</time>
      </trkpt>
      <trkpt lat="49.32807" lon="-1.6872">
        <ele>48.910381</ele>
        <time>2020-08-06T06:46:24.763Z</time>
      </trkpt>
      <trkpt lat="49.32797" lon="-1.68731">
        <ele>49.787926</ele>
        <time>2020-08-06T06:46:36.618Z</time>
      </trkpt>
      <trkpt lat="49.32775" lon="-1.6872">
        <ele>49.008224</ele>
        <time>2020-08-06T06:47:05.824Z</time>
      </trkpt>
      <trkpt lat="49.32759" lon="-1.68717">
        <ele>46.00433</ele>
        <time>2020-08-06T06:47:27.587Z</time>
      </trkpt>
      <trkpt lat="49.32772" lon="-1.6874">
        <ele>48.716553</ele>
        <time>2020-08-06T06:47:49.744Z</time>
      </trkpt>
      <trkpt lat="49.32771" lon="-1.68781">
        <ele>4.7</ele>
      </trkpt>
      <trkpt lat="49.32777" lon="-1.68797">
        <ele>51.717262</ele>
        <time>2020-08-06T06:48:32.844Z</time>
      </trkpt>
      <trkpt lat="49.32788" lon="-1.68817">
        <ele>4.3</ele>
      </trkpt>
      <trkpt lat="49.32792" lon="-1.68839">
        <ele>4</ele>
      </trkpt>
      <trkpt lat="49.32794" lon="-1.68861">
        <ele>51.632381</ele>
        <time>2020-08-06T06:49:08.769Z</time>
      </trkpt>
      <trkpt lat="49.32802" lon="-1.68877">
        <ele>3.8</ele>
      </trkpt>
      <trkpt lat="49.32804" lon="-1.68896">
        <ele>53.793774</ele>
        <time>2020-08-06T06:49:24.723Z</time>
      </trkpt>
      <trkpt lat="49.32805" lon="-1.68916">
        <ele>3.5</ele>
      </trkpt>
      <trkpt lat="49.32798" lon="-1.68946">
        <ele>4.2</ele>
      </trkpt>
      <trkpt lat="49.32792" lon="-1.68965">
        <ele>4.5</ele>
      </trkpt>
      <trkpt lat="49.32793" lon="-1.69">
        <ele>4.8</ele>
      </trkpt>
      <trkpt lat="49.32789" lon="-1.69048">
        <ele>4.8</ele>
      </trkpt>
      <trkpt lat="49.32786" lon="-1.69072">
        <ele>4.8</ele>
      </trkpt>
      <trkpt lat="49.32781" lon="-1.69084">
        <ele>4.4</ele>
      </trkpt>
      <trkpt lat="49.32779" lon="-1.69105">
        <ele>4.2</ele>
      </trkpt>
      <trkpt lat="49.32775" lon="-1.69122">
        <ele>4</ele>
      </trkpt>
      <trkpt lat="49.32771" lon="-1.69134">
        <ele>52.332279</ele>
        <time>2020-08-06T06:52:03.105Z</time>
      </trkpt>
      <trkpt lat="49.32766" lon="-1.69172">
        <ele>50.800175</ele>
        <time>2020-08-06T06:52:23.968Z</time>
      </trkpt>
      <trkpt lat="49.32766" lon="-1.69176">
        <ele>49.976826</ele>
        <time>2020-08-06T06:52:45.956Z</time>
      </trkpt>
      <trkpt lat="49.32758" lon="-1.69183">
        <ele>50.34314</ele>
        <time>2020-08-06T06:53:06.109Z</time>
      </trkpt>
      <trkpt lat="49.32748" lon="-1.69197">
        <ele>52.176785</ele>
        <time>2020-08-06T06:53:27.906Z</time>
      </trkpt>
      <trkpt lat="49.32723" lon="-1.69232">
        <ele>5.7</ele>
      </trkpt>
      <trkpt lat="49.32702" lon="-1.69243">
        <ele>57.29335</ele>
        <time>2020-08-06T06:54:04.352Z</time>
      </trkpt>
      <trkpt lat="49.32698" lon="-1.69234">
        <ele>55.704708</ele>
        <time>2020-08-06T06:54:25.969Z</time>
      </trkpt>
      <trkpt lat="49.32686" lon="-1.69236">
        <ele>53.787037</ele>
        <time>2020-08-06T06:54:47.951Z</time>
      </trkpt>
      <trkpt lat="49.32662" lon="-1.69273">
        <ele>54.91526</ele>
        <time>2020-08-06T06:55:00.457Z</time>
      </trkpt>
      <trkpt lat="49.32651" lon="-1.69306">
        <ele>55.254486</ele>
        <time>2020-08-06T06:55:16.954Z</time>
      </trkpt>
      <trkpt lat="49.32644" lon="-1.69324">
        <ele>54.271355</ele>
        <time>2020-08-06T06:55:33.813Z</time>
      </trkpt>
      <trkpt lat="49.32626" lon="-1.69356">
        <ele>51.307728</ele>
        <time>2020-08-06T06:55:49.662Z</time>
      </trkpt>
      <trkpt lat="49.32622" lon="-1.69375">
        <ele>8</ele>
      </trkpt>
      <trkpt lat="49.32612" lon="-1.69392">
        <ele>54.314438</ele>
        <time>2020-08-06T06:56:23.683Z</time>
      </trkpt>
      <trkpt lat="49.32606" lon="-1.69397">
        <ele>57.601437</ele>
        <time>2020-08-06T06:56:44.974Z</time>
      </trkpt>
      <trkpt lat="49.32594" lon="-1.69409">
        <ele>58.363274</ele>
        <time>2020-08-06T06:57:05.794Z</time>
      </trkpt>
      <trkpt lat="49.32573" lon="-1.69408">
        <ele>55.405399</ele>
        <time>2020-08-06T06:57:25.954Z</time>
      </trkpt>
      <trkpt lat="49.32549" lon="-1.69405">
        <ele>10.9</ele>
      </trkpt>
      <trkpt lat="49.32541" lon="-1.6942">
        <ele>10.4</ele>
      </trkpt>
      <trkpt lat="49.32537" lon="-1.69479">
        <ele>11</ele>
      </trkpt>
      <trkpt lat="49.32535" lon="-1.69496">
        <ele>11.2</ele>
      </trkpt>
      <trkpt lat="49.32525" lon="-1.69514">
        <ele>11.2</ele>
      </trkpt>
      <trkpt lat="49.32512" lon="-1.69529">
        <ele>10.9</ele>
      </trkpt>
      <trkpt lat="49.32508" lon="-1.69544">
        <ele>10.4</ele>
      </trkpt>
      <trkpt lat="49.32505" lon="-1.6956">
        <ele>64.531723</ele>
        <time>2020-08-06T07:02:07.627Z</time>
      </trkpt>
      <trkpt lat="49.32506" lon="-1.69562">
        <ele>63.711876</ele>
        <time>2020-08-06T07:02:45.869Z</time>
      </trkpt>
      <trkpt lat="49.32487" lon="-1.6957">
        <ele>59.521786</ele>
        <time>2020-08-06T07:03:06.674Z</time>
      </trkpt>
      <trkpt lat="49.32454" lon="-1.69589">
        <ele>57.248283</ele>
        <time>2020-08-06T07:03:28.061Z</time>
      </trkpt>
      <trkpt lat="49.32442" lon="-1.69607">
        <ele>11.1</ele>
      </trkpt>
      <trkpt lat="49.32425" lon="-1.6963">
        <ele>10.3</ele>
      </trkpt>
      <trkpt lat="49.3243" lon="-1.69653">
        <ele>9.2</ele>
      </trkpt>
      <trkpt lat="49.32422" lon="-1.6967">
        <ele>61.055553</ele>
        <time>2020-08-06T07:04:37.587Z</time>
      </trkpt>
      <trkpt lat="49.32421" lon="-1.69685">
        <ele>59.979633</ele>
        <time>2020-08-06T07:04:58.738Z</time>
      </trkpt>
      <trkpt lat="49.32418" lon="-1.69722">
        <ele>57.231701</ele>
        <time>2020-08-06T07:05:20.817Z</time>
      </trkpt>
      <trkpt lat="49.32405" lon="-1.69751">
        <ele>53.941303</ele>
        <time>2020-08-06T07:05:37.048Z</time>
      </trkpt>
      <trkpt lat="49.32398" lon="-1.6978">
        <ele>5.9</ele>
      </trkpt>
      <trkpt lat="49.32393" lon="-1.69794">
        <ele>6.3</ele>
      </trkpt>
      <trkpt lat="49.32393" lon="-1.69802">
        <ele>55.877686</ele>
        <time>2020-08-06T07:06:29.608Z</time>
      </trkpt>
      <trkpt lat="49.32386" lon="-1.69813">
        <ele>55.82217</ele>
        <time>2020-08-06T07:06:45.869Z</time>
      </trkpt>
      <trkpt lat="49.3237" lon="-1.69843">
        <ele>8</ele>
      </trkpt>
      <trkpt lat="49.32358" lon="-1.6986">
        <ele>56.989952</ele>
        <time>2020-08-06T07:07:12.698Z</time>
      </trkpt>
      <trkpt lat="49.32353" lon="-1.69869">
        <ele>57.472054</ele>
        <time>2020-08-06T07:07:34.987Z</time>
      </trkpt>
      <trkpt lat="49.32347" lon="-1.69886">
        <ele>59.821255</ele>
        <time>2020-08-06T07:07:55.780Z</time>
      </trkpt>
      <trkpt lat="49.32338" lon="-1.69895">
        <ele>8</ele>
      </trkpt>
      <trkpt lat="49.32331" lon="-1.6991">
        <ele>8.2</ele>
      </trkpt>
      <trkpt lat="49.32334" lon="-1.69942">
        <ele>57.744213</ele>
        <time>2020-08-06T07:08:13.971Z</time>
      </trkpt>
      <trkpt lat="49.32339" lon="-1.6996">
        <ele>58.855854</ele>
        <time>2020-08-06T07:08:24.973Z</time>
      </trkpt>
      <trkpt lat="49.3234" lon="-1.69979">
        <ele>7.3</ele>
      </trkpt>
      <trkpt lat="49.32342" lon="-1.70006">
        <ele>7.1</ele>
      </trkpt>
      <trkpt lat="49.32338" lon="-1.70041">
        <ele>61.318718</ele>
        <time>2020-08-06T07:09:22.976Z</time>
      </trkpt>
      <trkpt lat="49.32336" lon="-1.7008">
        <ele>59.895939</ele>
        <time>2020-08-06T07:09:39.616Z</time>
      </trkpt>
      <trkpt lat="49.32348" lon="-1.70116">
        <ele>57.139313</ele>
        <time>2020-08-06T07:10:01.677Z</time>
      </trkpt>
      <trkpt lat="49.32349" lon="-1.70154">
        <ele>5.7</ele>
      </trkpt>
      <trkpt lat="49.3235" lon="-1.70178">
        <ele>5</ele>
      </trkpt>
      <trkpt lat="49.32352" lon="-1.70215">
        <ele>5</ele>
      </trkpt>
      <trkpt lat="49.3235" lon="-1.70237">
        <ele>5</ele>
      </trkpt>
      <trkpt lat="49.32355" lon="-1.7027">
        <ele>5.6</ele>
      </trkpt>
      <trkpt lat="49.32357" lon="-1.70292">
        <ele>55.948364</ele>
        <time>2020-08-06T07:11:47.019Z</time>
      </trkpt>
      <trkpt lat="49.32369" lon="-1.70345">
        <ele>56.015823</ele>
        <time>2020-08-06T07:12:07.749Z</time>
      </trkpt>
      <trkpt lat="49.32382" lon="-1.70374">
        <ele>58.286945</ele>
        <time>2020-08-06T07:12:29.297Z</time>
      </trkpt>
      <trkpt lat="49.32401" lon="-1.70411">
        <ele>60.278095</ele>
        <time>2020-08-06T07:12:45.583Z</time>
      </trkpt>
      <trkpt lat="49.32411" lon="-1.70427">
        <ele>61.698151</ele>
        <time>2020-08-06T07:13:01.043Z</time>
      </trkpt>
      <trkpt lat="49.32423" lon="-1.70464">
        <ele>60.740788</ele>
        <time>2020-08-06T07:13:17.956Z</time>
      </trkpt>
      <trkpt lat="49.32433" lon="-1.70476">
        <ele>60.265991</ele>
        <time>2020-08-06T07:13:33.069Z</time>
      </trkpt>
      <trkpt lat="49.32456" lon="-1.70492">
        <ele>61.310135</ele>
        <time>2020-08-06T07:13:54.046Z</time>
      </trkpt>
      <trkpt lat="49.32481" lon="-1.70506">
        <ele>60.641823</ele>
        <time>2020-08-06T07:14:10.169Z</time>
      </trkpt>
      <trkpt lat="49.32505" lon="-1.7052">
        <ele>5.2</ele>
      </trkpt>
      <trkpt lat="49.32514" lon="-1.70534">
        <ele>5.2</ele>
      </trkpt>
      <trkpt lat="49.32526" lon="-1.70567">
        <ele>5.3</ele>
      </trkpt>
      <trkpt lat="49.32535" lon="-1.70589">
        <ele>6</ele>
      </trkpt>
      <trkpt lat="49.32546" lon="-1.70597">
        <ele>5.8</ele>
      </trkpt>
      <trkpt lat="49.32558" lon="-1.70597">
        <ele>6</ele>
      </trkpt>
      <trkpt lat="49.3257" lon="-1.70609">
        <ele>55.556515</ele>
        <time>2020-08-06T07:15:42.618Z</time>
      </trkpt>
      <trkpt lat="49.32589" lon="-1.70618">
        <ele>4.8</ele>
      </trkpt>
      <trkpt lat="49.32597" lon="-1.70624">
        <ele>59.716503</ele>
        <time>2020-08-06T07:16:20.527Z</time>
      </trkpt>
      <trkpt lat="49.32596" lon="-1.70624">
        <ele>59.716503</ele>
        <time>2020-08-06T07:16:31.444Z</time>
      </trkpt>
      <trkpt lat="49.32603" lon="-1.70627">
        <ele>59.416798</ele>
        <time>2020-08-06T07:16:41.586Z</time>
      </trkpt>
      <trkpt lat="49.3261" lon="-1.70631">
        <ele>4.9</ele>
      </trkpt>
      <trkpt lat="49.32621" lon="-1.70636">
        <ele>5</ele>
      </trkpt>
      <trkpt lat="49.32633" lon="-1.70648">
        <ele>4.6</ele>
      </trkpt>
      <trkpt lat="49.32645" lon="-1.7068">
        <ele>60.910782</ele>
        <time>2020-08-06T07:18:16.378Z</time>
      </trkpt>
      <trkpt lat="49.32648" lon="-1.70694">
        <ele>61.368656</ele>
        <time>2020-08-06T07:18:39.547Z</time>
      </trkpt>
      <trkpt lat="49.32648" lon="-1.70695">
        <ele>61.010593</ele>
        <time>2020-08-06T07:18:53.536Z</time>
      </trkpt>
      <trkpt lat="49.32659" lon="-1.70719">
        <ele>60.202118</ele>
        <time>2020-08-06T07:19:08.848Z</time>
      </trkpt>
      <trkpt lat="49.32669" lon="-1.7076">
        <ele>7</ele>
      </trkpt>
      <trkpt lat="49.32669" lon="-1.70778">
        <ele>7</ele>
      </trkpt>
      <trkpt lat="49.32671" lon="-1.70796">
        <ele>7</ele>
      </trkpt>
      <trkpt lat="49.32666" lon="-1.70813">
        <ele>7</ele>
      </trkpt>
      <trkpt lat="49.32655" lon="-1.7082">
        <ele>7</ele>
      </trkpt>
      <trkpt lat="49.32636" lon="-1.70826">
        <ele>60.074409</ele>
        <time>2020-08-06T07:20:23.021Z</time>
      </trkpt>
      <trkpt lat="49.32609" lon="-1.70825">
        <ele>59.089195</ele>
        <time>2020-08-06T07:20:39.142Z</time>
      </trkpt>
      <trkpt lat="49.32595" lon="-1.70829">
        <ele>59.154465</ele>
        <time>2020-08-06T07:20:55.030Z</time>
      </trkpt>
      <trkpt lat="49.32574" lon="-1.70824">
        <ele>58.778221</ele>
        <time>2020-08-06T07:21:11.000Z</time>
      </trkpt>
      <trkpt lat="49.32561" lon="-1.70822">
        <ele>60.99865</ele>
        <time>2020-08-06T07:21:23.725Z</time>
      </trkpt>
      <trkpt lat="49.32545" lon="-1.70819">
        <ele>62.418697</ele>
        <time>2020-08-06T07:21:44.911Z</time>
      </trkpt>
      <trkpt lat="49.32525" lon="-1.70811">
        <ele>8.7</ele>
      </trkpt>
      <trkpt lat="49.32508" lon="-1.70811">
        <ele>8.8</ele>
      </trkpt>
      <trkpt lat="49.32493" lon="-1.708">
        <ele>10</ele>
      </trkpt>
      <trkpt lat="49.3248" lon="-1.70786">
        <ele>10</ele>
      </trkpt>
      <trkpt lat="49.32455" lon="-1.70772">
        <ele>67.203308</ele>
        <time>2020-08-06T07:23:24.112Z</time>
      </trkpt>
      <trkpt lat="49.32442" lon="-1.70767">
        <ele>10</ele>
      </trkpt>
      <trkpt lat="49.32429" lon="-1.70773">
        <ele>66.543846</ele>
        <time>2020-08-06T07:23:40.069Z</time>
      </trkpt>
      <trkpt lat="49.32404" lon="-1.7076">
        <ele>10.2</ele>
      </trkpt>
      <trkpt lat="49.32391" lon="-1.70761">
        <ele>10.3</ele>
      </trkpt>
      <trkpt lat="49.32369" lon="-1.70759">
        <ele>10.6</ele>
      </trkpt>
      <trkpt lat="49.3234" lon="-1.70746">
        <ele>67.999115</ele>
        <time>2020-08-06T07:24:50.413Z</time>
      </trkpt>
      <trkpt lat="49.32331" lon="-1.70758">
        <ele>10.8</ele>
      </trkpt>
      <trkpt lat="49.32309" lon="-1.70764">
        <ele>68.006622</ele>
        <time>2020-08-06T07:25:26.594Z</time>
      </trkpt>
      <trkpt lat="49.32295" lon="-1.70753">
        <ele>10</ele>
      </trkpt>
      <trkpt lat="49.32283" lon="-1.70752">
        <ele>9.8</ele>
      </trkpt>
      <trkpt lat="49.32271" lon="-1.70751">
        <ele>9</ele>
      </trkpt>
      <trkpt lat="49.32259" lon="-1.70736">
        <ele>9.5</ele>
      </trkpt>
      <trkpt lat="49.32248" lon="-1.7073">
        <ele>9.1</ele>
      </trkpt>
      <trkpt lat="49.32236" lon="-1.70747">
        <ele>9</ele>
      </trkpt>
      <trkpt lat="49.32228" lon="-1.70761">
        <ele>8.4</ele>
      </trkpt>
      <trkpt lat="49.32215" lon="-1.70759">
        <ele>8</ele>
      </trkpt>
      <trkpt lat="49.32201" lon="-1.70757">
        <ele>7.8</ele>
      </trkpt>
      <trkpt lat="49.32185" lon="-1.70757">
        <ele>7</ele>
      </trkpt>
      <trkpt lat="49.32179" lon="-1.70766">
        <ele>61.853611</ele>
        <time>2020-08-06T07:27:11.996Z</time>
      </trkpt>
      <trkpt lat="49.32167" lon="-1.70763">
        <ele>64.106689</ele>
        <time>2020-08-06T07:27:26.774Z</time>
      </trkpt>
      <trkpt lat="49.32154" lon="-1.70759">
        <ele>7</ele>
      </trkpt>
      <trkpt lat="49.3214" lon="-1.70764">
        <ele>7.7</ele>
      </trkpt>
      <trkpt lat="49.32125" lon="-1.70762">
        <ele>64.890808</ele>
        <time>2020-08-06T07:28:09.102Z</time>
      </trkpt>
      <trkpt lat="49.32112" lon="-1.70754">
        <ele>8</ele>
      </trkpt>
      <trkpt lat="49.32098" lon="-1.70737">
        <ele>65.585274</ele>
        <time>2020-08-06T07:28:28.660Z</time>
      </trkpt>
      <trkpt lat="49.32087" lon="-1.70729">
        <ele>8.5</ele>
      </trkpt>
      <trkpt lat="49.32079" lon="-1.7071">
        <ele>63.681335</ele>
        <time>2020-08-06T07:28:50.978Z</time>
      </trkpt>
      <trkpt lat="49.3206" lon="-1.70687">
        <ele>61.402836</ele>
        <time>2020-08-06T07:29:12.110Z</time>
      </trkpt>
      <trkpt lat="49.32045" lon="-1.70661">
        <ele>59.469284</ele>
        <time>2020-08-06T07:29:33.131Z</time>
      </trkpt>
      <trkpt lat="49.32023" lon="-1.70637">
        <ele>58.737823</ele>
        <time>2020-08-06T07:29:49.968Z</time>
      </trkpt>
      <trkpt lat="49.32012" lon="-1.70628">
        <ele>8.5</ele>
      </trkpt>
      <trkpt lat="49.31999" lon="-1.70613">
        <ele>56.639347</ele>
        <time>2020-08-06T07:30:06.388Z</time>
      </trkpt>
      <trkpt lat="49.31987" lon="-1.70604">
        <ele>56.208733</ele>
        <time>2020-08-06T07:30:21.451Z</time>
      </trkpt>
      <trkpt lat="49.3197" lon="-1.7058">
        <ele>55.673325</ele>
        <time>2020-08-06T07:30:37.141Z</time>
      </trkpt>
      <trkpt lat="49.31958" lon="-1.70567">
        <ele>56.314579</ele>
        <time>2020-08-06T07:30:57.044Z</time>
      </trkpt>
      <trkpt lat="49.31938" lon="-1.70542">
        <ele>58.272385</ele>
        <time>2020-08-06T07:31:18.574Z</time>
      </trkpt>
      <trkpt lat="49.31918" lon="-1.70516">
        <ele>57.982296</ele>
        <time>2020-08-06T07:31:39.677Z</time>
      </trkpt>
      <trkpt lat="49.31913" lon="-1.70511">
        <ele>9.4</ele>
      </trkpt>
      <trkpt lat="49.31912" lon="-1.70502">
        <ele>9.2</ele>
      </trkpt>
      <trkpt lat="49.31908" lon="-1.70486">
        <ele>9.5</ele>
      </trkpt>
      <trkpt lat="49.31901" lon="-1.70493">
        <ele>61.929676</ele>
        <time>2020-08-06T07:32:21.720Z</time>
      </trkpt>
      <trkpt lat="49.31891" lon="-1.70497">
        <ele>9.8</ele>
      </trkpt>
      <trkpt lat="49.31886" lon="-1.70483">
        <ele>9.9</ele>
      </trkpt>
      <trkpt lat="49.31872" lon="-1.70483">
        <ele>63.628956</ele>
        <time>2020-08-06T07:33:20.778Z</time>
      </trkpt>
      <trkpt lat="49.31867" lon="-1.70501">
        <ele>10.4</ele>
      </trkpt>
      <trkpt lat="49.3186" lon="-1.70516">
        <ele>10.4</ele>
      </trkpt>
      <trkpt lat="49.31857" lon="-1.70536">
        <ele>10.2</ele>
      </trkpt>
      <trkpt lat="49.31849" lon="-1.7056">
        <ele>9.8</ele>
      </trkpt>
      <trkpt lat="49.31845" lon="-1.70576">
        <ele>9.5</ele>
      </trkpt>
      <trkpt lat="49.31839" lon="-1.70596">
        <ele>8.9</ele>
      </trkpt>
      <trkpt lat="49.31829" lon="-1.70621">
        <ele>8.1</ele>
      </trkpt>
      <trkpt lat="49.31807" lon="-1.70611">
        <ele>64.014671</ele>
        <time>2020-08-06T07:35:31.743Z</time>
      </trkpt>
      <trkpt lat="49.31786" lon="-1.70594">
        <ele>8.2</ele>
      </trkpt>
      <trkpt lat="49.31762" lon="-1.70578">
        <ele>8.7</ele>
      </trkpt>
      <trkpt lat="49.31736" lon="-1.70558">
        <ele>63.292931</ele>
        <time>2020-08-06T07:36:33.791Z</time>
      </trkpt>
      <trkpt lat="49.31719" lon="-1.70544">
        <ele>65.145065</ele>
        <time>2020-08-06T07:36:51.008Z</time>
      </trkpt>
      <trkpt lat="49.31713" lon="-1.70538">
        <ele>64.794441</ele>
        <time>2020-08-06T07:37:08.064Z</time>
      </trkpt>
      <trkpt lat="49.31713" lon="-1.7054">
        <ele>64.17598</ele>
        <time>2020-08-06T07:37:23.064Z</time>
      </trkpt>
      <trkpt lat="49.31706" lon="-1.70567">
        <ele>8.1</ele>
      </trkpt>
      <trkpt lat="49.31696" lon="-1.70588">
        <ele>6.7</ele>
      </trkpt>
      <trkpt lat="49.31686" lon="-1.70606">
        <ele>6.6</ele>
      </trkpt>
      <trkpt lat="49.31679" lon="-1.70623">
        <ele>6.7</ele>
      </trkpt>
      <trkpt lat="49.31668" lon="-1.70651">
        <ele>6.8</ele>
      </trkpt>
      <trkpt lat="49.31661" lon="-1.70681">
        <ele>8.4</ele>
      </trkpt>
      <trkpt lat="49.31651" lon="-1.70704">
        <ele>59.008553</ele>
        <time>2020-08-06T07:39:10.955Z</time>
      </trkpt>
      <trkpt lat="49.31641" lon="-1.70697">
        <ele>59.685658</ele>
        <time>2020-08-06T07:39:31.757Z</time>
      </trkpt>
      <trkpt lat="49.31622" lon="-1.70672">
        <ele>59.390522</ele>
        <time>2020-08-06T07:39:53.104Z</time>
      </trkpt>
      <trkpt lat="49.31601" lon="-1.70665">
        <ele>58.462502</ele>
        <time>2020-08-06T07:40:13.814Z</time>
      </trkpt>
      <trkpt lat="49.31577" lon="-1.70654">
        <ele>57.656784</ele>
        <time>2020-08-06T07:40:34.841Z</time>
      </trkpt>
      <trkpt lat="49.31551" lon="-1.70636">
        <ele>58.036812</ele>
        <time>2020-08-06T07:40:54.773Z</time>
      </trkpt>
      <trkpt lat="49.31531" lon="-1.70615">
        <ele>57.841961</ele>
        <time>2020-08-06T07:41:11.419Z</time>
      </trkpt>
      <trkpt lat="49.31509" lon="-1.70596">
        <ele>59.609173</ele>
        <time>2020-08-06T07:41:32.693Z</time>
      </trkpt>
      <trkpt lat="49.31485" lon="-1.70588">
        <ele>58.487507</ele>
        <time>2020-08-06T07:41:53.720Z</time>
      </trkpt>
      <trkpt lat="49.31466" lon="-1.70567">
        <ele>59.227627</ele>
        <time>2020-08-06T07:42:11.050Z</time>
      </trkpt>
      <trkpt lat="49.31443" lon="-1.70547">
        <ele>59.149193</ele>
        <time>2020-08-06T07:42:26.050Z</time>
      </trkpt>
      <trkpt lat="49.3144" lon="-1.70545">
        <ele>58.019909</ele>
        <time>2020-08-06T07:42:45.564Z</time>
      </trkpt>
      <trkpt lat="49.31428" lon="-1.70533">
        <ele>57.169243</ele>
        <time>2020-08-06T07:43:01.063Z</time>
      </trkpt>
      <trkpt lat="49.31411" lon="-1.70524">
        <ele>57.03495</ele>
        <time>2020-08-06T07:43:22.711Z</time>
      </trkpt>
      <trkpt lat="49.31408" lon="-1.70522">
        <ele>58.130852</ele>
        <time>2020-08-06T07:43:49.578Z</time>
      </trkpt>
      <trkpt lat="49.31403" lon="-1.70516">
        <ele>57.649364</ele>
        <time>2020-08-06T07:44:05.044Z</time>
      </trkpt>
      <trkpt lat="49.31388" lon="-1.70501">
        <ele>58.743385</ele>
        <time>2020-08-06T07:44:20.824Z</time>
      </trkpt>
      <trkpt lat="49.31374" lon="-1.70489">
        <ele>58.190472</ele>
        <time>2020-08-06T07:44:39.002Z</time>
      </trkpt>
      <trkpt lat="49.31352" lon="-1.70471">
        <ele>58.852951</ele>
        <time>2020-08-06T07:44:58.964Z</time>
      </trkpt>
      <trkpt lat="49.3133" lon="-1.7046">
        <ele>60.567375</ele>
        <time>2020-08-06T07:45:20.755Z</time>
      </trkpt>
      <trkpt lat="49.31312" lon="-1.70441">
        <ele>57.722942</ele>
        <time>2020-08-06T07:45:38.311Z</time>
      </trkpt>
      <trkpt lat="49.31295" lon="-1.70425">
        <ele>56.288979</ele>
        <time>2020-08-06T07:45:53.531Z</time>
      </trkpt>
      <trkpt lat="49.31284" lon="-1.70417">
        <ele>57.045441</ele>
        <time>2020-08-06T07:46:13.724Z</time>
      </trkpt>
      <trkpt lat="49.31263" lon="-1.704">
        <ele>55.614788</ele>
        <time>2020-08-06T07:46:30.841Z</time>
      </trkpt>
      <trkpt lat="49.31242" lon="-1.70384">
        <ele>55.188618</ele>
        <time>2020-08-06T07:46:45.558Z</time>
      </trkpt>
      <trkpt lat="49.3123" lon="-1.70373">
        <ele>54.385941</ele>
        <time>2020-08-06T07:46:55.919Z</time>
      </trkpt>
      <trkpt lat="49.31219" lon="-1.70364">
        <ele>54.756344</ele>
        <time>2020-08-06T07:47:06.046Z</time>
      </trkpt>
      <trkpt lat="49.31208" lon="-1.70355">
        <ele>54.801205</ele>
        <time>2020-08-06T07:47:19.056Z</time>
      </trkpt>
      <trkpt lat="49.31196" lon="-1.70346">
        <ele>53.885822</ele>
        <time>2020-08-06T07:47:36.004Z</time>
      </trkpt>
      <trkpt lat="49.31173" lon="-1.70329">
        <ele>55.084457</ele>
        <time>2020-08-06T07:47:47.089Z</time>
      </trkpt>
      <trkpt lat="49.31162" lon="-1.7032">
        <ele>56.215244</ele>
        <time>2020-08-06T07:47:58.584Z</time>
      </trkpt>
      <trkpt lat="49.3115" lon="-1.7031">
        <ele>56.604893</ele>
        <time>2020-08-06T07:48:14.045Z</time>
      </trkpt>
      <trkpt lat="49.3113" lon="-1.70292">
        <ele>57.078247</ele>
        <time>2020-08-06T07:48:30.405Z</time>
      </trkpt>
      <trkpt lat="49.31119" lon="-1.70286">
        <ele>58.066658</ele>
        <time>2020-08-06T07:48:41.596Z</time>
      </trkpt>
      <trkpt lat="49.31109" lon="-1.70278">
        <ele>58.681171</ele>
        <time>2020-08-06T07:48:56.315Z</time>
      </trkpt>
      <trkpt lat="49.31087" lon="-1.70254">
        <ele>58.402573</ele>
        <time>2020-08-06T07:49:17.430Z</time>
      </trkpt>
      <trkpt lat="49.31067" lon="-1.70235">
        <ele>57.857586</ele>
        <time>2020-08-06T07:49:34.912Z</time>
      </trkpt>
      <trkpt lat="49.31044" lon="-1.70217">
        <ele>59.129452</ele>
        <time>2020-08-06T07:49:50.586Z</time>
      </trkpt>
      <trkpt lat="49.31034" lon="-1.70208">
        <ele>57.752384</ele>
        <time>2020-08-06T07:50:10.635Z</time>
      </trkpt>
      <trkpt lat="49.3101" lon="-1.70187">
        <ele>57.206741</ele>
        <time>2020-08-06T07:50:28.606Z</time>
      </trkpt>
      <trkpt lat="49.30989" lon="-1.7017">
        <ele>57.102375</ele>
        <time>2020-08-06T07:50:42.379Z</time>
      </trkpt>
      <trkpt lat="49.30977" lon="-1.70166">
        <ele>55.724133</ele>
        <time>2020-08-06T07:51:00.362Z</time>
      </trkpt>
      <trkpt lat="49.30955" lon="-1.70142">
        <ele>54.968307</ele>
        <time>2020-08-06T07:51:14.791Z</time>
      </trkpt>
      <trkpt lat="49.30944" lon="-1.70133">
        <ele>54.897865</ele>
        <time>2020-08-06T07:51:36.028Z</time>
      </trkpt>
      <trkpt lat="49.30923" lon="-1.70116">
        <ele>55.358616</ele>
        <time>2020-08-06T07:51:57.601Z</time>
      </trkpt>
      <trkpt lat="49.309" lon="-1.70094">
        <ele>55.163033</ele>
        <time>2020-08-06T07:52:14.381Z</time>
      </trkpt>
      <trkpt lat="49.30881" lon="-1.70069">
        <ele>57.365494</ele>
        <time>2020-08-06T07:52:29.047Z</time>
      </trkpt>
      <trkpt lat="49.30872" lon="-1.70059">
        <ele>57.018265</ele>
        <time>2020-08-06T07:52:50.038Z</time>
      </trkpt>
      <trkpt lat="49.30848" lon="-1.70018">
        <ele>55.09816</ele>
        <time>2020-08-06T07:53:07.718Z</time>
      </trkpt>
      <trkpt lat="49.30846" lon="-1.69998">
        <ele>54.372322</ele>
        <time>2020-08-06T07:53:21.913Z</time>
      </trkpt>
      <trkpt lat="49.30845" lon="-1.6997">
        <ele>54.903492</ele>
        <time>2020-08-06T07:53:43.668Z</time>
      </trkpt>
      <trkpt lat="49.30853" lon="-1.69946">
        <ele>5.4</ele>
      </trkpt>
      <trkpt lat="49.30861" lon="-1.69931">
        <ele>5.4</ele>
      </trkpt>
      <trkpt lat="49.30864" lon="-1.69926">
        <ele>5.5</ele>
      </trkpt>
      <trkpt lat="49.30865" lon="-1.69917">
        <ele>5.5</ele>
      </trkpt>
      <trkpt lat="49.30874" lon="-1.69899">
        <ele>5.8</ele>
      </trkpt>
      <trkpt lat="49.30874" lon="-1.69883">
        <ele>56.750275</ele>
        <time>2020-08-06T07:55:16.079Z</time>
      </trkpt>
      <trkpt lat="49.30877" lon="-1.69875">
        <ele>6</ele>
      </trkpt>
      <trkpt lat="49.3088" lon="-1.69865">
        <ele>56.291386</ele>
        <time>2020-08-06T07:55:48.027Z</time>
      </trkpt>
      <trkpt lat="49.30901" lon="-1.69855">
        <ele>56.949387</ele>
        <time>2020-08-06T07:56:03.872Z</time>
      </trkpt>
      <trkpt lat="49.30914" lon="-1.6985">
        <ele>6.1</ele>
      </trkpt>
      <trkpt lat="49.30931" lon="-1.69854">
        <ele>6.2</ele>
      </trkpt>
      <trkpt lat="49.30942" lon="-1.69844">
        <ele>6.2</ele>
      </trkpt>
      <trkpt lat="49.30953" lon="-1.6984">
        <ele>6.3</ele>
      </trkpt>
      <trkpt lat="49.30959" lon="-1.69837">
        <ele>6.3</ele>
      </trkpt>
      <trkpt lat="49.30965" lon="-1.69838">
        <ele>6.4</ele>
      </trkpt>
      <trkpt lat="49.30978" lon="-1.69845">
        <ele>53.070499</ele>
        <time>2020-08-06T07:57:05.685Z</time>
      </trkpt>
      <trkpt lat="49.30991" lon="-1.69849">
        <ele>52.86005</ele>
        <time>2020-08-06T07:57:16.570Z</time>
      </trkpt>
      <trkpt lat="49.31004" lon="-1.69857">
        <ele>6.5</ele>
      </trkpt>
      <trkpt lat="49.31017" lon="-1.69864">
        <ele>51.996216</ele>
        <time>2020-08-06T07:57:50.576Z</time>
      </trkpt>
      <trkpt lat="49.31029" lon="-1.69868">
        <ele>6.3</ele>
      </trkpt>
      <trkpt lat="49.31031" lon="-1.69866">
        <ele>6.3</ele>
      </trkpt>
      <trkpt lat="49.31033" lon="-1.6986">
        <ele>6.4</ele>
      </trkpt>
      <trkpt lat="49.31036" lon="-1.69855">
        <ele>6.4</ele>
      </trkpt>
      <trkpt lat="49.31038" lon="-1.69852">
        <ele>6.4</ele>
      </trkpt>
      <trkpt lat="49.31048" lon="-1.69834">
        <ele>6.5</ele>
      </trkpt>
      <trkpt lat="49.31049" lon="-1.69817">
        <ele>7.4</ele>
      </trkpt>
      <trkpt lat="49.3106" lon="-1.69802">
        <ele>7.4</ele>
      </trkpt>
      <trkpt lat="49.31076" lon="-1.6979">
        <ele>7.5</ele>
      </trkpt>
      <trkpt lat="49.31096" lon="-1.6976">
        <ele>48.804176</ele>
        <time>2020-08-06T08:00:36.508Z</time>
      </trkpt>
      <trkpt lat="49.31103" lon="-1.69741">
        <ele>48.391411</ele>
        <time>2020-08-06T08:00:47.319Z</time>
      </trkpt>
      <trkpt lat="49.31107" lon="-1.69723">
        <ele>7.4</ele>
      </trkpt>
      <trkpt lat="49.31119" lon="-1.6969">
        <ele>7.2</ele>
      </trkpt>
      <trkpt lat="49.31126" lon="-1.69658">
        <ele>7</ele>
      </trkpt>
      <trkpt lat="49.31136" lon="-1.69631">
        <ele>7</ele>
      </trkpt>
      <trkpt lat="49.31139" lon="-1.6961">
        <ele>7</ele>
      </trkpt>
      <trkpt lat="49.31151" lon="-1.69591">
        <ele>7</ele>
      </trkpt>
      <trkpt lat="49.31151" lon="-1.69567">
        <ele>7.3</ele>
      </trkpt>
      <trkpt lat="49.31152" lon="-1.69553">
        <ele>7.4</ele>
      </trkpt>
      <trkpt lat="49.31157" lon="-1.6954">
        <ele>7.5</ele>
      </trkpt>
      <trkpt lat="49.31171" lon="-1.69501">
        <ele>8.1</ele>
      </trkpt>
      <trkpt lat="49.3118" lon="-1.69461">
        <ele>9</ele>
      </trkpt>
      <trkpt lat="49.31196" lon="-1.69427">
        <ele>9.2</ele>
      </trkpt>
      <trkpt lat="49.31208" lon="-1.69409">
        <ele>9.7</ele>
      </trkpt>
      <trkpt lat="49.3122" lon="-1.69401">
        <ele>9.7</ele>
      </trkpt>
      <trkpt lat="49.31231" lon="-1.69385">
        <ele>9.7</ele>
      </trkpt>
      <trkpt lat="49.31231" lon="-1.69359">
        <ele>9.6</ele>
      </trkpt>
      <trkpt lat="49.31236" lon="-1.69317">
        <ele>9.6</ele>
      </trkpt>
      <trkpt lat="49.31244" lon="-1.69295">
        <ele>9.8</ele>
      </trkpt>
      <trkpt lat="49.31254" lon="-1.69278">
        <ele>53.186722</ele>
        <time>2020-08-06T08:05:29.416Z</time>
      </trkpt>
      <trkpt lat="49.31259" lon="-1.69259">
        <ele>56.548294</ele>
        <time>2020-08-06T08:05:46.122Z</time>
      </trkpt>
      <trkpt lat="49.31257" lon="-1.69263">
        <ele>56.620998</ele>
        <time>2020-08-06T08:09:05.772Z</time>
      </trkpt>
      <trkpt lat="49.31257" lon="-1.69265">
        <ele>56.777</ele>
        <time>2020-08-06T08:09:42.616Z</time>
      </trkpt>
      <trkpt lat="49.31259" lon="-1.69261">
        <ele>56.806839</ele>
        <time>2020-08-06T08:10:01.649Z</time>
      </trkpt>
      <trkpt lat="49.31262" lon="-1.69252">
        <ele>59.497768</ele>
        <time>2020-08-06T08:10:17.590Z</time>
      </trkpt>
      <trkpt lat="49.3127" lon="-1.69232">
        <ele>62.013763</ele>
        <time>2020-08-06T08:10:31.005Z</time>
      </trkpt>
      <trkpt lat="49.31281" lon="-1.69209">
        <ele>62.609497</ele>
        <time>2020-08-06T08:10:41.650Z</time>
      </trkpt>
      <trkpt lat="49.3129" lon="-1.69182">
        <ele>64.072693</ele>
        <time>2020-08-06T08:10:52.849Z</time>
      </trkpt>
      <trkpt lat="49.31296" lon="-1.6916">
        <ele>64.076057</ele>
        <time>2020-08-06T08:11:03.778Z</time>
      </trkpt>
      <trkpt lat="49.31307" lon="-1.69117">
        <ele>65.12886</ele>
        <time>2020-08-06T08:11:19.905Z</time>
      </trkpt>
      <trkpt lat="49.31314" lon="-1.691">
        <ele>65.105118</ele>
        <time>2020-08-06T08:11:30.216Z</time>
      </trkpt>
      <trkpt lat="49.31321" lon="-1.69083">
        <ele>62.934013</ele>
        <time>2020-08-06T08:11:40.441Z</time>
      </trkpt>
      <trkpt lat="49.31327" lon="-1.69066">
        <ele>65.290581</ele>
        <time>2020-08-06T08:11:51.084Z</time>
      </trkpt>
      <trkpt lat="49.31332" lon="-1.69049">
        <ele>64.076294</ele>
        <time>2020-08-06T08:12:01.201Z</time>
      </trkpt>
      <trkpt lat="49.31339" lon="-1.69033">
        <ele>64.25946</ele>
        <time>2020-08-06T08:12:11.593Z</time>
      </trkpt>
      <trkpt lat="49.31347" lon="-1.69014">
        <ele>64.391548</ele>
        <time>2020-08-06T08:12:22.311Z</time>
      </trkpt>
      <trkpt lat="49.31353" lon="-1.68995">
        <ele>63.777184</ele>
        <time>2020-08-06T08:12:33.110Z</time>
      </trkpt>
      <trkpt lat="49.3136" lon="-1.68975">
        <ele>61.816635</ele>
        <time>2020-08-06T08:12:43.803Z</time>
      </trkpt>
      <trkpt lat="49.31366" lon="-1.68959">
        <ele>61.339314</ele>
        <time>2020-08-06T08:12:54.674Z</time>
      </trkpt>
      <trkpt lat="49.31374" lon="-1.68936">
        <ele>60.402061</ele>
        <time>2020-08-06T08:13:06.128Z</time>
      </trkpt>
      <trkpt lat="49.31381" lon="-1.68918">
        <ele>60.594093</ele>
        <time>2020-08-06T08:13:16.240Z</time>
      </trkpt>
      <trkpt lat="49.31388" lon="-1.68898">
        <ele>61.799305</ele>
        <time>2020-08-06T08:13:28.529Z</time>
      </trkpt>
      <trkpt lat="49.31394" lon="-1.68879">
        <ele>11.9</ele>
      </trkpt>
      <trkpt lat="49.31406" lon="-1.68846">
        <ele>11.9</ele>
      </trkpt>
      <trkpt lat="49.31413" lon="-1.68828">
        <ele>11.9</ele>
      </trkpt>
      <trkpt lat="49.31428" lon="-1.68788">
        <ele>11.6</ele>
      </trkpt>
      <trkpt lat="49.31433" lon="-1.68767">
        <ele>11.5</ele>
      </trkpt>
      <trkpt lat="49.31447" lon="-1.68726">
        <ele>11.6</ele>
      </trkpt>
      <trkpt lat="49.31453" lon="-1.68712">
        <ele>11.7</ele>
      </trkpt>
      <trkpt lat="49.31457" lon="-1.68697">
        <ele>11.8</ele>
      </trkpt>
      <trkpt lat="49.31466" lon="-1.68659">
        <ele>61.429485</ele>
        <time>2020-08-06T08:15:40.112Z</time>
      </trkpt>
      <trkpt lat="49.31468" lon="-1.68638">
        <ele>62.934124</ele>
        <time>2020-08-06T08:15:50.572Z</time>
      </trkpt>
      <trkpt lat="49.31475" lon="-1.68618">
        <ele>63.485394</ele>
        <time>2020-08-06T08:16:01.033Z</time>
      </trkpt>
      <trkpt lat="49.31479" lon="-1.68597">
        <ele>13</ele>
      </trkpt>
      <trkpt lat="49.31487" lon="-1.68576">
        <ele>13.5</ele>
      </trkpt>
      <trkpt lat="49.31491" lon="-1.68559">
        <ele>64.204536</ele>
        <time>2020-08-06T08:16:40.601Z</time>
      </trkpt>
      <trkpt lat="49.31496" lon="-1.68535">
        <ele>65.946655</ele>
        <time>2020-08-06T08:16:55.008Z</time>
      </trkpt>
      <trkpt lat="49.31499" lon="-1.6852">
        <ele>65.368195</ele>
        <time>2020-08-06T08:17:12.431Z</time>
      </trkpt>
      <trkpt lat="49.31506" lon="-1.68482">
        <ele>13.6</ele>
      </trkpt>
      <trkpt lat="49.31511" lon="-1.68448">
        <ele>13.3</ele>
      </trkpt>
      <trkpt lat="49.3152" lon="-1.68419">
        <ele>13.1</ele>
      </trkpt>
      <trkpt lat="49.31524" lon="-1.68399">
        <ele>13.1</ele>
      </trkpt>
      <trkpt lat="49.31528" lon="-1.68383">
        <ele>13.2</ele>
      </trkpt>
      <trkpt lat="49.31536" lon="-1.68346">
        <ele>13.3</ele>
      </trkpt>
      <trkpt lat="49.31541" lon="-1.68322">
        <ele>13.5</ele>
      </trkpt>
      <trkpt lat="49.31546" lon="-1.683">
        <ele>13.5</ele>
      </trkpt>
      <trkpt lat="49.31551" lon="-1.68278">
        <ele>13.6</ele>
      </trkpt>
      <trkpt lat="49.31559" lon="-1.68246">
        <ele>13.7</ele>
      </trkpt>
      <trkpt lat="49.31564" lon="-1.68213">
        <ele>13.6</ele>
      </trkpt>
      <trkpt lat="49.31579" lon="-1.68222">
        <ele>61.707851</ele>
        <time>2020-08-06T08:19:52.878Z</time>
      </trkpt>
      <trkpt lat="49.3159" lon="-1.68231">
        <ele>61.946701</ele>
        <time>2020-08-06T08:20:10.105Z</time>
      </trkpt>
      <trkpt lat="49.31608" lon="-1.68249">
        <ele>14.3</ele>
      </trkpt>
      <trkpt lat="49.31621" lon="-1.68261">
        <ele>14.5</ele>
      </trkpt>
      <trkpt lat="49.31632" lon="-1.68271">
        <ele>14.6</ele>
      </trkpt>
      <trkpt lat="49.31643" lon="-1.68281">
        <ele>62.388012</ele>
        <time>2020-08-06T08:20:54.385Z</time>
      </trkpt>
      <trkpt lat="49.31654" lon="-1.68289">
        <ele>64.143578</ele>
        <time>2020-08-06T08:21:05.007Z</time>
      </trkpt>
      <trkpt lat="49.31664" lon="-1.68298">
        <ele>61.997757</ele>
        <time>2020-08-06T08:21:16.727Z</time>
      </trkpt>
      <trkpt lat="49.31675" lon="-1.68308">
        <ele>60.207703</ele>
        <time>2020-08-06T08:21:27.182Z</time>
      </trkpt>
      <trkpt lat="49.31686" lon="-1.68317">
        <ele>56.755348</ele>
        <time>2020-08-06T08:21:38.654Z</time>
      </trkpt>
      <trkpt lat="49.31713" lon="-1.68339">
        <ele>50.63377</ele>
        <time>2020-08-06T08:21:54.469Z</time>
      </trkpt>
      <trkpt lat="49.31724" lon="-1.68349">
        <ele>14.7</ele>
      </trkpt>
      <trkpt lat="49.31736" lon="-1.68363">
        <ele>14.6</ele>
      </trkpt>
      <trkpt lat="49.31749" lon="-1.68375">
        <ele>14.5</ele>
      </trkpt>
      <trkpt lat="49.31769" lon="-1.68394">
        <ele>14.6</ele>
      </trkpt>
      <trkpt lat="49.31783" lon="-1.68406">
        <ele>14.6</ele>
      </trkpt>
      <trkpt lat="49.31794" lon="-1.68417">
        <ele>14.1</ele>
      </trkpt>
      <trkpt lat="49.31808" lon="-1.68427">
        <ele>14.2</ele>
      </trkpt>
      <trkpt lat="49.31817" lon="-1.68441">
        <ele>14.1</ele>
      </trkpt>
      <trkpt lat="49.31826" lon="-1.68448">
        <ele>14</ele>
      </trkpt>
      <trkpt lat="49.31836" lon="-1.68456">
        <ele>15</ele>
      </trkpt>
      <trkpt lat="49.31847" lon="-1.68466">
        <ele>14.9</ele>
      </trkpt>
      <trkpt lat="49.31871" lon="-1.68489">
        <ele>15.1</ele>
      </trkpt>
      <trkpt lat="49.31887" lon="-1.68502">
        <ele>14.5</ele>
      </trkpt>
      <trkpt lat="49.31906" lon="-1.68516">
        <ele>14.9</ele>
      </trkpt>
      <trkpt lat="49.31915" lon="-1.68523">
        <ele>14.8</ele>
      </trkpt>
      <trkpt lat="49.31927" lon="-1.6854">
        <ele>14.7</ele>
      </trkpt>
      <trkpt lat="49.31938" lon="-1.68552">
        <ele>14.5</ele>
      </trkpt>
      <trkpt lat="49.31953" lon="-1.68564">
        <ele>14.3</ele>
      </trkpt>
      <trkpt lat="49.3196" lon="-1.68545">
        <ele>31.806801</ele>
        <time>2020-08-06T08:25:43.560Z</time>
      </trkpt>
      <trkpt lat="49.31964" lon="-1.68535">
        <ele>14.5</ele>
      </trkpt>
      <trkpt lat="49.3197" lon="-1.68517">
        <ele>14.7</ele>
      </trkpt>
      <trkpt lat="49.31977" lon="-1.68497">
        <ele>15.7</ele>
      </trkpt>
      <trkpt lat="49.31983" lon="-1.68484">
        <ele>15.7</ele>
      </trkpt>
      <trkpt lat="49.3199" lon="-1.68468">
        <ele>15.9</ele>
      </trkpt>
      <trkpt lat="49.31996" lon="-1.6845">
        <ele>16</ele>
      </trkpt>
      <trkpt lat="49.32002" lon="-1.68433">
        <ele>15.5</ele>
      </trkpt>
      <trkpt lat="49.32011" lon="-1.68414">
        <ele>15.7</ele>
      </trkpt>
      <trkpt lat="49.32023" lon="-1.68383">
        <ele>15.3</ele>
      </trkpt>
      <trkpt lat="49.32029" lon="-1.68361">
        <ele>15.2</ele>
      </trkpt>
      <trkpt lat="49.32042" lon="-1.68327">
        <ele>15</ele>
      </trkpt>
      <trkpt lat="49.32049" lon="-1.68308">
        <ele>15</ele>
      </trkpt>
      <trkpt lat="49.32056" lon="-1.68294">
        <ele>15</ele>
      </trkpt>
      <trkpt lat="49.32062" lon="-1.68277">
        <ele>15</ele>
      </trkpt>
      <trkpt lat="49.32069" lon="-1.68263">
        <ele>15</ele>
      </trkpt>
      <trkpt lat="49.32074" lon="-1.68249">
        <ele>15.1</ele>
      </trkpt>
      <trkpt lat="49.32083" lon="-1.68231">
        <ele>15.3</ele>
      </trkpt>
      <trkpt lat="49.32089" lon="-1.68214">
        <ele>15</ele>
      </trkpt>
      <trkpt lat="49.32093" lon="-1.68239">
        <ele>14.9</ele>
      </trkpt>
      <trkpt lat="49.321" lon="-1.68257">
        <ele>14.6</ele>
      </trkpt>
      <trkpt lat="49.32107" lon="-1.68286">
        <ele>14.4</ele>
      </trkpt>
      <trkpt lat="49.32115" lon="-1.68302">
        <ele>55.435886</ele>
        <time>2020-08-06T08:30:23.300Z</time>
      </trkpt>
      <trkpt lat="49.32129" lon="-1.68318">
        <ele>14.1</ele>
      </trkpt>
      <trkpt lat="49.32152" lon="-1.68336">
        <ele>13.6</ele>
      </trkpt>
      <trkpt lat="49.32165" lon="-1.68341">
        <ele>59.296101</ele>
        <time>2020-08-06T08:31:00.527Z</time>
      </trkpt>
      <trkpt lat="49.32177" lon="-1.68343">
        <ele>59.757664</ele>
        <time>2020-08-06T08:31:10.879Z</time>
      </trkpt>
      <trkpt lat="49.32189" lon="-1.68342">
        <ele>58.605511</ele>
        <time>2020-08-06T08:31:21.013Z</time>
      </trkpt>
      <trkpt lat="49.32201" lon="-1.68341">
        <ele>56.534431</ele>
        <time>2020-08-06T08:31:31.130Z</time>
      </trkpt>
      <trkpt lat="49.32215" lon="-1.68339">
        <ele>55.695904</ele>
        <time>2020-08-06T08:31:41.352Z</time>
      </trkpt>
      <trkpt lat="49.32225" lon="-1.68351">
        <ele>13</ele>
      </trkpt>
      <trkpt lat="49.32233" lon="-1.68367">
        <ele>12.9</ele>
      </trkpt>
      <trkpt lat="49.3224" lon="-1.68383">
        <ele>12.8</ele>
      </trkpt>
      <trkpt lat="49.32245" lon="-1.68399">
        <ele>12.5</ele>
      </trkpt>
      <trkpt lat="49.32252" lon="-1.68413">
        <ele>12</ele>
      </trkpt>
      <trkpt lat="49.3226" lon="-1.68419">
        <ele>11.7</ele>
      </trkpt>
      <trkpt lat="49.32272" lon="-1.68414">
        <ele>12.1</ele>
      </trkpt>
      <trkpt lat="49.32284" lon="-1.68403">
        <ele>12.1</ele>
      </trkpt>
      <trkpt lat="49.32295" lon="-1.68391">
        <ele>60.289234</ele>
        <time>2020-08-06T08:33:18.302Z</time>
      </trkpt>
      <trkpt lat="49.32317" lon="-1.68379">
        <ele>63.644272</ele>
        <time>2020-08-06T08:33:34.115Z</time>
      </trkpt>
      <trkpt lat="49.3233" lon="-1.68378">
        <ele>64.441956</ele>
        <time>2020-08-06T08:33:44.535Z</time>
      </trkpt>
      <trkpt lat="49.32355" lon="-1.68382">
        <ele>61.305733</ele>
        <time>2020-08-06T08:34:06.722Z</time>
      </trkpt>
      <trkpt lat="49.32366" lon="-1.68383">
        <ele>11.2</ele>
      </trkpt>
      <trkpt lat="49.32376" lon="-1.68384">
        <ele>11.2</ele>
      </trkpt>
      <trkpt lat="49.32387" lon="-1.68389">
        <ele>11</ele>
      </trkpt>
      <trkpt lat="49.324" lon="-1.6839">
        <ele>10.9</ele>
      </trkpt>
      <trkpt lat="49.32417" lon="-1.68386">
        <ele>58.224598</ele>
        <time>2020-08-06T08:35:06.551Z</time>
      </trkpt>
      <trkpt lat="49.32427" lon="-1.68386">
        <ele>9.6</ele>
      </trkpt>
      <trkpt lat="49.32439" lon="-1.68389">
        <ele>9.5</ele>
      </trkpt>
      <trkpt lat="49.32458" lon="-1.6837">
        <ele>9.3</ele>
      </trkpt>
      <trkpt lat="49.32464" lon="-1.6836">
        <ele>9.2</ele>
      </trkpt>
      <trkpt lat="49.32474" lon="-1.68364">
        <ele>57.673943</ele>
        <time>2020-08-06T08:36:00.963Z</time>
      </trkpt>
      <trkpt lat="49.32488" lon="-1.68375">
        <ele>8.9</ele>
      </trkpt>
      <trkpt lat="49.32496" lon="-1.68378">
        <ele>8.8</ele>
      </trkpt>
      <trkpt lat="49.32508" lon="-1.68387">
        <ele>50.32</ele>
        <time>2020-08-06T08:36:34.449Z</time>
      </trkpt>
      <trkpt lat="49.32517" lon="-1.68406">
        <ele>8</ele>
      </trkpt>
      <trkpt lat="49.32529" lon="-1.68416">
        <ele>8</ele>
      </trkpt>
      <trkpt lat="49.32538" lon="-1.68429">
        <ele>8.4</ele>
      </trkpt>
      <trkpt lat="49.32546" lon="-1.68445">
        <ele>8.4</ele>
      </trkpt>
      <trkpt lat="49.32557" lon="-1.68455">
        <ele>8.4</ele>
      </trkpt>
      <trkpt lat="49.32569" lon="-1.68467">
        <ele>8.4</ele>
      </trkpt>
      <trkpt lat="49.32577" lon="-1.68482">
        <ele>8.3</ele>
      </trkpt>
      <trkpt lat="49.32591" lon="-1.68495">
        <ele>7.9</ele>
      </trkpt>
      <trkpt lat="49.326" lon="-1.685">
        <ele>7.8</ele>
      </trkpt>
      <trkpt lat="49.32611" lon="-1.68513">
        <ele>7.4</ele>
      </trkpt>
      <trkpt lat="49.32618" lon="-1.68527">
        <ele>7.3</ele>
      </trkpt>
      <trkpt lat="49.32629" lon="-1.68538">
        <ele>50.102589</ele>
        <time>2020-08-06T08:38:35.378Z</time>
      </trkpt>
      <trkpt lat="49.32637" lon="-1.68551">
        <ele>50.80653</ele>
        <time>2020-08-06T08:38:46.295Z</time>
      </trkpt>
      <trkpt lat="49.32645" lon="-1.68565">
        <ele>51.824375</ele>
        <time>2020-08-06T08:39:00.818Z</time>
      </trkpt>
      <trkpt lat="49.32664" lon="-1.68581">
        <ele>51.499065</ele>
        <time>2020-08-06T08:39:22.420Z</time>
      </trkpt>
      <trkpt lat="49.32676" lon="-1.68607">
        <ele>6.6</ele>
      </trkpt>
      <trkpt lat="49.32684" lon="-1.68621">
        <ele>6.5</ele>
      </trkpt>
      <trkpt lat="49.32695" lon="-1.68636">
        <ele>53.659019</ele>
        <time>2020-08-06T08:40:25.369Z</time>
      </trkpt>
      <trkpt lat="49.32711" lon="-1.6865">
        <ele>53.4921</ele>
        <time>2020-08-06T08:40:46.941Z</time>
      </trkpt>
      <trkpt lat="49.32728" lon="-1.68677">
        <ele>52.070194</ele>
        <time>2020-08-06T08:41:03.948Z</time>
      </trkpt>
      <trkpt lat="49.3274" lon="-1.68702">
        <ele>49.403214</ele>
        <time>2020-08-06T08:41:20.078Z</time>
      </trkpt>
      <trkpt lat="49.32748" lon="-1.68714">
        <ele>49.589771</ele>
        <time>2020-08-06T08:41:39.815Z</time>
      </trkpt>
      <trkpt lat="49.32767" lon="-1.68726">
        <ele>50.080593</ele>
        <time>2020-08-06T08:42:02.003Z</time>
      </trkpt>
      <trkpt lat="49.32773" lon="-1.68708">
        <ele>50.323544</ele>
        <time>2020-08-06T08:42:21.949Z</time>
      </trkpt>
      <trkpt lat="49.32783" lon="-1.68715">
        <ele>49.792088</ele>
        <time>2020-08-06T08:45:12.804Z</time>
      </trkpt>
      <trkpt lat="49.32801" lon="-1.68718">
        <ele>53.640415</ele>
        <time>2020-08-06T08:45:23.946Z</time>
      </trkpt>
      <trkpt lat="49.32811" lon="-1.68716">
        <ele>54.737679</ele>
        <time>2020-08-06T08:45:38.949Z</time>
      </trkpt>
      <trkpt lat="49.32816" lon="-1.68713">
        <ele>55.399349</ele>
        <time>2020-08-06T08:45:59.366Z</time>
      </trkpt>
      <trkpt lat="49.32835" lon="-1.68689">
        <ele>59.41803</ele>
        <time>2020-08-06T08:46:19.926Z</time>
      </trkpt>
      <trkpt lat="49.32853" lon="-1.68657">
        <ele>60.986626</ele>
        <time>2020-08-06T08:46:35.841Z</time>
      </trkpt>
      <trkpt lat="49.32861" lon="-1.68642">
        <ele>60.790157</ele>
        <time>2020-08-06T08:46:46.056Z</time>
      </trkpt>
      <trkpt lat="49.32869" lon="-1.68626">
        <ele>61.023693</ele>
        <time>2020-08-06T08:46:56.355Z</time>
      </trkpt>
      <trkpt lat="49.32878" lon="-1.68614">
        <ele>61.646645</ele>
        <time>2020-08-06T08:47:06.773Z</time>
      </trkpt>
      <trkpt lat="49.32889" lon="-1.68618">
        <ele>58.902359</ele>
        <time>2020-08-06T08:47:18.357Z</time>
      </trkpt>
      <trkpt lat="49.32897" lon="-1.6863">
        <ele>57.338398</ele>
        <time>2020-08-06T08:47:40.105Z</time>
      </trkpt>
      <trkpt lat="49.32912" lon="-1.68645">
        <ele>51.664944</ele>
        <time>2020-08-06T08:47:58.056Z</time>
      </trkpt>
      <trkpt lat="49.32924" lon="-1.68657">
        <ele>51.46048</ele>
        <time>2020-08-06T08:48:08.572Z</time>
      </trkpt>
      <trkpt lat="49.32934" lon="-1.68669">
        <ele>51.128204</ele>
        <time>2020-08-06T08:48:18.595Z</time>
      </trkpt>
      <trkpt lat="49.32949" lon="-1.68673">
        <ele>1.8</ele>
      </trkpt>
      <trkpt lat="49.32974" lon="-1.68673">
        <ele>51.566971</ele>
        <time>2020-08-06T08:49:55.113Z</time>
      </trkpt>
      <trkpt lat="49.32977" lon="-1.68678">
        <ele>1.8</ele>
      </trkpt>
      <trkpt lat="49.32975" lon="-1.68676">
        <ele>51.318569</ele>
        <time>2020-08-06T08:50:20.925Z</time>
      </trkpt>
      <trkpt lat="49.32979" lon="-1.68685">
        <ele>1.8</ele>
      </trkpt>
      <trkpt lat="49.32984" lon="-1.68687">
        <ele>1.8</ele>
      </trkpt>
      <trkpt lat="49.32993" lon="-1.68688">
        <ele>54.035946</ele>
        <time>2020-08-06T08:50:37.936Z</time>
      </trkpt>
      <trkpt lat="49.32997" lon="-1.68693">
        <ele>52.698925</ele>
        <time>2020-08-06T08:50:55.519Z</time>
      </trkpt>
      <trkpt lat="49.33003" lon="-1.68694">
        <ele>52.674042</ele>
        <time>2020-08-06T08:51:06.598Z</time>
      </trkpt>
      <trkpt lat="49.33017" lon="-1.68694">
        <ele>55.63208</ele>
        <time>2020-08-06T08:51:17.970Z</time>
      </trkpt>
      <trkpt lat="49.33027" lon="-1.68698">
        <ele>56.880276</ele>
        <time>2020-08-06T08:51:28.607Z</time>
      </trkpt>
      <trkpt lat="49.33033" lon="-1.68698">
        <ele>56.826225</ele>
        <time>2020-08-06T08:51:38.635Z</time>
      </trkpt>
      <trkpt lat="49.33039" lon="-1.68697">
        <ele>56.663544</ele>
        <time>2020-08-06T08:51:49.620Z</time>
      </trkpt>
      <trkpt lat="49.33053" lon="-1.68699">
        <ele>56.046543</ele>
        <time>2020-08-06T08:55:36.545Z</time>
      </trkpt>
      <trkpt lat="49.33052" lon="-1.687">
        <ele>56.057114</ele>
        <time>2020-08-06T08:56:00.539Z</time>
      </trkpt>
      <trkpt lat="49.33056" lon="-1.68705">
        <ele>55.753628</ele>
        <time>2020-08-06T08:56:39.077Z</time>
      </trkpt>
      <trkpt lat="49.33058" lon="-1.68709">
        <ele>53.588692</ele>
        <time>2020-08-06T08:56:58.879Z</time>
      </trkpt>
      <trkpt lat="49.33058" lon="-1.68732">
        <ele>55.049034</ele>
        <time>2020-08-06T08:57:41.718Z</time>
      </trkpt>
      <trkpt lat="49.33058" lon="-1.68743">
        <ele>57.319912</ele>
        <time>2020-08-06T08:58:03.758Z</time>
      </trkpt>
      <trkpt lat="49.33041" lon="-1.68774">
        <ele>57.177795</ele>
        <time>2020-08-06T08:58:21.079Z</time>
      </trkpt>
      <trkpt lat="49.33028" lon="-1.68808">
        <ele>55.47216</ele>
        <time>2020-08-06T08:58:32.051Z</time>
      </trkpt>
      <trkpt lat="49.33024" lon="-1.68824">
        <ele>58.579357</ele>
        <time>2020-08-06T08:58:43.058Z</time>
      </trkpt>
      <trkpt lat="49.3302" lon="-1.6884">
        <ele>60.055618</ele>
        <time>2020-08-06T08:58:54.061Z</time>
      </trkpt>
      <trkpt lat="49.33016" lon="-1.68855">
        <ele>59.192425</ele>
        <time>2020-08-06T08:59:05.112Z</time>
      </trkpt>
      <trkpt lat="49.33013" lon="-1.68871">
        <ele>56.893345</ele>
        <time>2020-08-06T08:59:16.521Z</time>
      </trkpt>
      <trkpt lat="49.33014" lon="-1.6889">
        <ele>55.351574</ele>
        <time>2020-08-06T08:59:31.943Z</time>
      </trkpt>
      <trkpt lat="49.33006" lon="-1.68919">
        <ele>58.647888</ele>
        <time>2020-08-06T08:59:48.629Z</time>
      </trkpt>
      <trkpt lat="49.32995" lon="-1.68949">
        <ele>59.93198</ele>
        <time>2020-08-06T09:00:04.910Z</time>
      </trkpt>
      <trkpt lat="49.32991" lon="-1.68965">
        <ele>58.73391</ele>
        <time>2020-08-06T09:00:15.581Z</time>
      </trkpt>
      <trkpt lat="49.32989" lon="-1.68983">
        <ele>56.908577</ele>
        <time>2020-08-06T09:00:26.050Z</time>
      </trkpt>
      <trkpt lat="49.32987" lon="-1.69004">
        <ele>56.139591</ele>
        <time>2020-08-06T09:00:42.788Z</time>
      </trkpt>
      <trkpt lat="49.32989" lon="-1.69041">
        <ele>53.854691</ele>
        <time>2020-08-06T09:00:56.567Z</time>
      </trkpt>
      <trkpt lat="49.32996" lon="-1.69059">
        <ele>4.9</ele>
      </trkpt>
      <trkpt lat="49.32994" lon="-1.6907">
        <ele>5.2</ele>
      </trkpt>
      <trkpt lat="49.32998" lon="-1.69109">
        <ele>55.860844</ele>
        <time>2020-08-06T09:01:38.041Z</time>
      </trkpt>
      <trkpt lat="49.32999" lon="-1.69127">
        <ele>56.680733</ele>
        <time>2020-08-06T09:01:51.033Z</time>
      </trkpt>
      <trkpt lat="49.32998" lon="-1.69143">
        <ele>4.3</ele>
      </trkpt>
      <trkpt lat="49.32999" lon="-1.69174">
        <ele>57.210701</ele>
        <time>2020-08-06T09:02:26.905Z</time>
      </trkpt>
      <trkpt lat="49.32998" lon="-1.69208">
        <ele>57.125309</ele>
        <time>2020-08-06T09:02:41.404Z</time>
      </trkpt>
      <trkpt lat="49.33002" lon="-1.69223">
        <ele>56.502918</ele>
        <time>2020-08-06T09:03:02.677Z</time>
      </trkpt>
      <trkpt lat="49.33009" lon="-1.69249">
        <ele>53.736893</ele>
        <time>2020-08-06T09:03:19.751Z</time>
      </trkpt>
      <trkpt lat="49.33024" lon="-1.69273">
        <ele>52.906803</ele>
        <time>2020-08-06T09:03:31.000Z</time>
      </trkpt>
      <trkpt lat="49.33033" lon="-1.69281">
        <ele>52.813862</ele>
        <time>2020-08-06T09:03:41.794Z</time>
      </trkpt>
      <trkpt lat="49.33042" lon="-1.69292">
        <ele>52.337749</ele>
        <time>2020-08-06T09:03:53.104Z</time>
      </trkpt>
      <trkpt lat="49.3305" lon="-1.69306">
        <ele>52.722794</ele>
        <time>2020-08-06T09:04:04.086Z</time>
      </trkpt>
      <trkpt lat="49.33055" lon="-1.69321">
        <ele>52.928448</ele>
        <time>2020-08-06T09:04:15.729Z</time>
      </trkpt>
      <trkpt lat="49.3306" lon="-1.69336">
        <ele>52.65313</ele>
        <time>2020-08-06T09:04:26.209Z</time>
      </trkpt>
      <trkpt lat="49.33067" lon="-1.69348">
        <ele>53.151562</ele>
        <time>2020-08-06T09:04:37.745Z</time>
      </trkpt>
      <trkpt lat="49.33078" lon="-1.69379">
        <ele>50.242214</ele>
        <time>2020-08-06T09:04:53.019Z</time>
      </trkpt>
      <trkpt lat="49.33081" lon="-1.69398">
        <ele>50.18697</ele>
        <time>2020-08-06T09:05:03.442Z</time>
      </trkpt>
      <trkpt lat="49.33079" lon="-1.69417">
        <ele>3.8</ele>
      </trkpt>
      <trkpt lat="49.3308" lon="-1.69434">
        <ele>3.6</ele>
      </trkpt>
      <trkpt lat="49.3308" lon="-1.69452">
        <ele>3.4</ele>
      </trkpt>
      <trkpt lat="49.33083" lon="-1.6948">
        <ele>3.6</ele>
      </trkpt>
      <trkpt lat="49.3309" lon="-1.69516">
        <ele>5.2</ele>
      </trkpt>
      <trkpt lat="49.33097" lon="-1.69549">
        <ele>50.823395</ele>
        <time>2020-08-06T09:06:45.392Z</time>
      </trkpt>
      <trkpt lat="49.33109" lon="-1.69574">
        <ele>51.559475</ele>
        <time>2020-08-06T09:06:57.072Z</time>
      </trkpt>
      <trkpt lat="49.33116" lon="-1.69585">
        <ele>52.73349</ele>
        <time>2020-08-06T09:07:12.059Z</time>
      </trkpt>
      <trkpt lat="49.33135" lon="-1.69605">
        <ele>53.946098</ele>
        <time>2020-08-06T09:07:27.597Z</time>
      </trkpt>
      <trkpt lat="49.33148" lon="-1.6962">
        <ele>55.11673</ele>
        <time>2020-08-06T09:07:40.943Z</time>
      </trkpt>
      <trkpt lat="49.3316" lon="-1.69632">
        <ele>55.248798</ele>
        <time>2020-08-06T09:07:54.748Z</time>
      </trkpt>
      <trkpt lat="49.33178" lon="-1.69655">
        <ele>56.551044</ele>
        <time>2020-08-06T09:08:08.605Z</time>
      </trkpt>
      <trkpt lat="49.33187" lon="-1.69663">
        <ele>55.990276</ele>
        <time>2020-08-06T09:08:20.002Z</time>
      </trkpt>
      <trkpt lat="49.33195" lon="-1.69676">
        <ele>55.214371</ele>
        <time>2020-08-06T09:08:38.677Z</time>
      </trkpt>
      <trkpt lat="49.33216" lon="-1.69701">
        <ele>5.1</ele>
      </trkpt>
      <trkpt lat="49.33231" lon="-1.69718">
        <ele>54.972153</ele>
        <time>2020-08-06T09:09:13.077Z</time>
      </trkpt>
      <trkpt lat="49.3324" lon="-1.69725">
        <ele>5.2</ele>
      </trkpt>
      <trkpt lat="49.33249" lon="-1.69731">
        <ele>5</ele>
      </trkpt>
      <trkpt lat="49.33258" lon="-1.69741">
        <ele>5.8</ele>
      </trkpt>
      <trkpt lat="49.33272" lon="-1.69755">
        <ele>5.3</ele>
      </trkpt>
      <trkpt lat="49.33283" lon="-1.69765">
        <ele>5.5</ele>
      </trkpt>
      <trkpt lat="49.33293" lon="-1.69772">
        <ele>6</ele>
      </trkpt>
      <trkpt lat="49.33303" lon="-1.69785">
        <ele>56.346096</ele>
        <time>2020-08-06T09:10:39.453Z</time>
      </trkpt>
      <trkpt lat="49.33322" lon="-1.69792">
        <ele>56.212177</ele>
        <time>2020-08-06T09:11:01.090Z</time>
      </trkpt>
      <trkpt lat="49.33334" lon="-1.69804">
        <ele>57.299999</ele>
        <time>2020-08-06T09:11:12.910Z</time>
      </trkpt>
      <trkpt lat="49.33345" lon="-1.69814">
        <ele>57.299999</ele>
        <time>2020-08-06T09:11:28.049Z</time>
      </trkpt>
      <trkpt lat="49.33365" lon="-1.69842">
        <ele>57.299999</ele>
        <time>2020-08-06T09:11:43.833Z</time>
      </trkpt>
      <trkpt lat="49.33375" lon="-1.69854">
        <ele>57.299999</ele>
        <time>2020-08-06T09:11:54.514Z</time>
      </trkpt>
      <trkpt lat="49.33385" lon="-1.69867">
        <ele>52.246342</ele>
        <time>2020-08-06T09:12:07.025Z</time>
      </trkpt>
      <trkpt lat="49.33393" lon="-1.69879">
        <ele>52.142437</ele>
        <time>2020-08-06T09:12:21.548Z</time>
      </trkpt>
      <trkpt lat="49.3341" lon="-1.69902">
        <ele>5.6</ele>
      </trkpt>
      <trkpt lat="49.33425" lon="-1.69925">
        <ele>6.3</ele>
      </trkpt>
      <trkpt lat="49.33437" lon="-1.69932">
        <ele>6.5</ele>
      </trkpt>
      <trkpt lat="49.33447" lon="-1.69937">
        <ele>57</ele>
        <time>2020-08-06T09:13:21.649Z</time>
      </trkpt>
      <trkpt lat="49.33469" lon="-1.69954">
        <ele>57.599998</ele>
        <time>2020-08-06T09:13:37.935Z</time>
      </trkpt>
      <trkpt lat="49.33471" lon="-1.69967">
        <ele>59.899998</ele>
        <time>2020-08-06T09:13:53.765Z</time>
      </trkpt>
      <trkpt lat="49.33448" lon="-1.70001">
        <ele>57.099998</ele>
        <time>2020-08-06T09:14:09.575Z</time>
      </trkpt>
      <trkpt lat="49.3344" lon="-1.70012">
        <ele>57.399998</ele>
        <time>2020-08-06T09:14:19.600Z</time>
      </trkpt>
      <trkpt lat="49.33431" lon="-1.70023">
        <ele>57.399998</ele>
        <time>2020-08-06T09:14:30.111Z</time>
      </trkpt>
      <trkpt lat="49.33424" lon="-1.70034">
        <ele>57.399998</ele>
        <time>2020-08-06T09:14:52.024Z</time>
      </trkpt>
      <trkpt lat="49.33411" lon="-1.70063">
        <ele>57.399998</ele>
        <time>2020-08-06T09:15:10.098Z</time>
      </trkpt>
      <trkpt lat="49.33395" lon="-1.70086">
        <ele>56.599998</ele>
        <time>2020-08-06T09:15:21.957Z</time>
      </trkpt>
      <trkpt lat="49.33387" lon="-1.70099">
        <ele>56.599998</ele>
        <time>2020-08-06T09:15:36.655Z</time>
      </trkpt>
      <trkpt lat="49.3337" lon="-1.70125">
        <ele>56.599998</ele>
        <time>2020-08-06T09:15:53.425Z</time>
      </trkpt>
      <trkpt lat="49.3336" lon="-1.70139">
        <ele>56.599998</ele>
        <time>2020-08-06T09:16:04.677Z</time>
      </trkpt>
      <trkpt lat="49.33352" lon="-1.7015">
        <ele>56.599998</ele>
        <time>2020-08-06T09:16:19.540Z</time>
      </trkpt>
      <trkpt lat="49.33333" lon="-1.70176">
        <ele>56.599998</ele>
        <time>2020-08-06T09:16:38.024Z</time>
      </trkpt>
      <trkpt lat="49.33325" lon="-1.70187">
        <ele>56.599998</ele>
        <time>2020-08-06T09:16:55.855Z</time>
      </trkpt>
      <trkpt lat="49.33308" lon="-1.70203">
        <ele>56.599998</ele>
        <time>2020-08-06T09:17:06.956Z</time>
      </trkpt>
      <trkpt lat="49.333" lon="-1.70215">
        <ele>56.599998</ele>
        <time>2020-08-06T09:17:17.679Z</time>
      </trkpt>
      <trkpt lat="49.33291" lon="-1.70229">
        <ele>62.057678</ele>
        <time>2020-08-06T09:17:28.009Z</time>
      </trkpt>
      <trkpt lat="49.33283" lon="-1.70243">
        <ele>61.245323</ele>
        <time>2020-08-06T09:17:42.639Z</time>
      </trkpt>
      <trkpt lat="49.33267" lon="-1.70269">
        <ele>61.174782</ele>
        <time>2020-08-06T09:17:58.552Z</time>
      </trkpt>
      <trkpt lat="49.33258" lon="-1.70277">
        <ele>62.965034</ele>
        <time>2020-08-06T09:18:09.055Z</time>
      </trkpt>
      <trkpt lat="49.33247" lon="-1.7028">
        <ele>63.153702</ele>
        <time>2020-08-06T09:18:29.391Z</time>
      </trkpt>
      <trkpt lat="49.3323" lon="-1.7029">
        <ele>59.131168</ele>
        <time>2020-08-06T09:18:40.085Z</time>
      </trkpt>
      <trkpt lat="49.33222" lon="-1.70299">
        <ele>56.76791</ele>
        <time>2020-08-06T09:18:50.240Z</time>
      </trkpt>
      <trkpt lat="49.33211" lon="-1.70306">
        <ele>56.721256</ele>
        <time>2020-08-06T09:19:23.422Z</time>
      </trkpt>
      <trkpt lat="49.33208" lon="-1.70314">
        <ele>55.88023</ele>
        <time>2020-08-06T09:19:33.555Z</time>
      </trkpt>
      <trkpt lat="49.33205" lon="-1.70313">
        <ele>55.65395</ele>
        <time>2020-08-06T09:19:54.551Z</time>
      </trkpt>
      <trkpt lat="49.33204" lon="-1.70315">
        <ele>55.520721</ele>
        <time>2020-08-06T09:20:05.537Z</time>
      </trkpt>
      <trkpt lat="49.33198" lon="-1.70325">
        <ele>56.257923</ele>
        <time>2020-08-06T09:20:16.592Z</time>
      </trkpt>
      <trkpt lat="49.33194" lon="-1.70333">
        <ele>56.106972</ele>
        <time>2020-08-06T09:20:27.144Z</time>
      </trkpt>
      <trkpt lat="49.33186" lon="-1.70352">
        <ele>57.154694</ele>
        <time>2020-08-06T09:20:37.614Z</time>
      </trkpt>
      <trkpt lat="49.33179" lon="-1.70368">
        <ele>57.4548</ele>
        <time>2020-08-06T09:20:48.511Z</time>
      </trkpt>
      <trkpt lat="49.33173" lon="-1.70384">
        <ele>57.822613</ele>
        <time>2020-08-06T09:21:16.328Z</time>
      </trkpt>
      <trkpt lat="49.33149" lon="-1.70419">
        <ele>58.078136</ele>
        <time>2020-08-06T09:21:30.118Z</time>
      </trkpt>
      <trkpt lat="49.33141" lon="-1.70431">
        <ele>58.340347</ele>
        <time>2020-08-06T09:21:40.236Z</time>
      </trkpt>
      <trkpt lat="49.33134" lon="-1.70443">
        <ele>56.925076</ele>
        <time>2020-08-06T09:21:50.568Z</time>
      </trkpt>
      <trkpt lat="49.33126" lon="-1.70458">
        <ele>57.810921</ele>
        <time>2020-08-06T09:22:01.237Z</time>
      </trkpt>
      <trkpt lat="49.33118" lon="-1.70471">
        <ele>58.184376</ele>
        <time>2020-08-06T09:22:12.107Z</time>
      </trkpt>
      <trkpt lat="49.33111" lon="-1.70481">
        <ele>59.242157</ele>
        <time>2020-08-06T09:22:22.855Z</time>
      </trkpt>
      <trkpt lat="49.33106" lon="-1.70492">
        <ele>57.504093</ele>
        <time>2020-08-06T09:22:34.024Z</time>
      </trkpt>
      <trkpt lat="49.331" lon="-1.70498">
        <ele>59.000191</ele>
        <time>2020-08-06T09:22:44.852Z</time>
      </trkpt>
      <trkpt lat="49.3309" lon="-1.70507">
        <ele>59.377846</ele>
        <time>2020-08-06T09:22:56.009Z</time>
      </trkpt>
      <trkpt lat="49.33081" lon="-1.70517">
        <ele>58.831253</ele>
        <time>2020-08-06T09:23:06.913Z</time>
      </trkpt>
      <trkpt lat="49.33072" lon="-1.7053">
        <ele>58.645008</ele>
        <time>2020-08-06T09:23:18.987Z</time>
      </trkpt>
      <trkpt lat="49.33059" lon="-1.70551">
        <ele>59.244968</ele>
        <time>2020-08-06T09:23:33.607Z</time>
      </trkpt>
      <trkpt lat="49.33045" lon="-1.70569">
        <ele>58.213173</ele>
        <time>2020-08-06T09:23:53.720Z</time>
      </trkpt>
      <trkpt lat="49.33037" lon="-1.70578">
        <ele>58.21909</ele>
        <time>2020-08-06T09:24:04.614Z</time>
      </trkpt>
      <trkpt lat="49.33028" lon="-1.70586">
        <ele>58.622887</ele>
        <time>2020-08-06T09:24:15.585Z</time>
      </trkpt>
      <trkpt lat="49.33023" lon="-1.70597">
        <ele>58.764095</ele>
        <time>2020-08-06T09:24:28.761Z</time>
      </trkpt>
      <trkpt lat="49.33024" lon="-1.70598">
        <ele>58.764095</ele>
        <time>2020-08-06T09:24:50.100Z</time>
      </trkpt>
      <trkpt lat="49.33026" lon="-1.70599">
        <ele>58.764095</ele>
        <time>2020-08-06T09:26:06.167Z</time>
      </trkpt>
    </trkseg>
  </trk>
  <trk>
    <name><![CDATA[Itinéraire secours si passerelle inondée]]></name>
    <extensions>
      <line xmlns="http://www.topografix.com/GPX/gpx_style/0/2">
        <color>ff0000</color>
        <width>4</width>
      </line>
    </extensions>
    <trkseg>
      <trkpt lat="49.32877" lon="-1.6861">
        <ele>3.8</ele>
      </trkpt>
      <trkpt lat="49.32829" lon="-1.68506">
        <ele>5.1</ele>
      </trkpt>
      <trkpt lat="49.32753" lon="-1.68342">
        <ele>6.7</ele>
      </trkpt>
      <trkpt lat="49.32743" lon="-1.68299">
        <ele>7.2</ele>
      </trkpt>
      <trkpt lat="49.3274" lon="-1.6824">
        <ele>7.1</ele>
      </trkpt>
      <trkpt lat="49.32735" lon="-1.68164">
        <ele>7.4</ele>
      </trkpt>
      <trkpt lat="49.3272" lon="-1.67861">
        <ele>8.4</ele>
      </trkpt>
      <trkpt lat="49.3323" lon="-1.67931">
        <ele>12.9</ele>
      </trkpt>
      <trkpt lat="49.33199" lon="-1.6802">
        <ele>12.4</ele>
      </trkpt>
      <trkpt lat="49.33155" lon="-1.68113">
        <ele>9.5</ele>
      </trkpt>
      <trkpt lat="49.33127" lon="-1.68168">
        <ele>8</ele>
      </trkpt>
      <trkpt lat="49.33112" lon="-1.68231">
        <ele>6.5</ele>
      </trkpt>
      <trkpt lat="49.33094" lon="-1.68331">
        <ele>4.6</ele>
      </trkpt>
      <trkpt lat="49.33086" lon="-1.6839">
        <ele>6.6</ele>
      </trkpt>
      <trkpt lat="49.33081" lon="-1.68503">
        <ele>7.6</ele>
      </trkpt>
      <trkpt lat="49.33069" lon="-1.68567">
        <ele>6.6</ele>
      </trkpt>
      <trkpt lat="49.33074" lon="-1.68642">
        <ele>6.3</ele>
      </trkpt>
      <trkpt lat="49.33062" lon="-1.68672">
        <ele>5.6</ele>
      </trkpt>
      <trkpt lat="49.33057" lon="-1.68692">
        <ele>4.8</ele>
      </trkpt>
    </trkseg>
  </trk>
</gpx>